Terminal Aerodrome Forecast
Issued by NWS Missoula, MT

Home | Current Version | Previous Version | Text Only | Print | Product List | Glossary On
Versions: 1 2 3 4 5 6 7 8 9 10 11 12 13 14 15
000
FTUS45 KMSO 080059 AAA
TAFBTM
TAF AMD
KBTM 080059Z 0801/0824 02013G20KT P6SM -SHRA VCTS SCT060 OVC080CB
     FM080400 VRB06KT P6SM FEW050
     FM081200 13005KT P6SM SCT010 BKN030=

USA.gov is the U.S. government's official web portal to all federal, state and local government web resources and services.